^^
Datos históricos de la estación: Murcia-Puente Tocinos
Diario Informe para Febrero 16, 2019 Unidades:  Ingés    Métrico   Ambas
Diario Semanal Mensual Anual
  Máxima: Mínima: Promedio:
Temperatura: 87.4 °F 75.9 °F 81.1 °F
Punto de rocio: 73.8 °F 63.5 °F 69.1 °F
Humedad: 91% 47.8% 69%
Velocidad viento: 13.7mph 2mph 7mph
Racha viento: 24.2mph - -
Viento- - NE
Presión: 29.9 in 29.9 in -
Precipitación: 0 in    
 
 
Tabla de datos para Febrero 16, 2019
Hora Temperatura Punto de rocio Presión Viento Velocidad viento Racha viento Humedad Intensidad lluvia(por hora) Nubes
00:04 78.3 °F 72.3 °F 29.9 in NE 8.1 mph 14 mph 82% 0 in
00:09 78.3 °F 72.3 °F 29.9 in NE 7.8 mph 11 mph 82% 0 in
00:14 78.3 °F 72.3 °F 29.9 in NE 6.9 mph 12.7 mph 82% 0 in
00:19 78.1 °F 72.3 °F 29.9 in NE 7.1 mph 13.8 mph 82.6% 0 in
00:24 78.1 °F 72.5 °F 29.9 in NE 7.6 mph 14 mph 83% 0 in
00:29 78.1 °F 72.5 °F 29.9 in NE 7.6 mph 14 mph 83% 0 in
00:34 78.3 °F 72.7 °F 29.9 in NE 7.6 mph 12 mph 83% 0 in
00:39 78.3 °F 72.9 °F 29.9 in NE 7.5 mph 12.3 mph 83.7% 0 in
00:44 78.1 °F 72.9 °F 29.9 in NE 7.4 mph 13 mph 84% 0 in
00:49 78.1 °F 73 °F 29.9 in NE 7.5 mph 12 mph 84.6% 0 in
00:54 78.1 °F 73 °F 29.9 in NE 7.6 mph 10.4 mph 84.4% 0 in
00:59 78.1 °F 73.2 °F 29.9 in NE 7 mph 10.4 mph 85% 0 in
01:04 78.1 °F 73.2 °F 29.9 in NE 5.9 mph 9.2 mph 85% 0 in
01:09 77.9 °F 73.2 °F 29.9 in NE 5.9 mph 9.7 mph 85.4% 0 in
01:14 77.9 °F 73.4 °F 29.9 in NE 5.9 mph 10 mph 86% 0 in
01:19 77.7 °F 73.2 °F 29.9 in NE 5.8 mph 11.5 mph 86% 0 in
01:24 77.5 °F 73 °F 29.9 in NE 5.4 mph 12 mph 86% 0 in
01:29 77.5 °F 73.4 °F 29.9 in NE 5.4 mph 9.7 mph 86.9% 0 in
01:34 77.5 °F 73.4 °F 29.9 in NE 5.4 mph 10.4 mph 87% 0 in
01:39 77.5 °F 73.4 °F 29.9 in NE 5.5 mph 10 mph 87% 0 in
01:44 77.5 °F 73.4 °F 29.9 in NE 5.9 mph 9 mph 87% 0 in
01:49 77.5 °F 73.4 °F 29.9 in NNE 5.5 mph 9.2 mph 87% 0 in
01:54 77.4 °F 73.2 °F 29.9 in NE 4.3 mph 9 mph 87% 0 in
01:59 77.4 °F 73.2 °F 29.9 in NE 4.5 mph 9 mph 87% 0 in
02:04 77.4 °F 73.2 °F 29.9 in NE 4.7 mph 8.5 mph 87% 0 in
02:09 77.4 °F 73.2 °F 29.9 in NE 4.7 mph 9 mph 87% 0 in
02:14 77.4 °F 73.2 °F 29.9 in NE 4.7 mph 8 mph 87% 0 in
02:19 77.4 °F 73.2 °F 29.9 in NNE 4.5 mph 7.4 mph 87% 0 in
02:24 77.4 °F 73.2 °F 29.9 in NE 4 mph 7 mph 87% 0 in
02:29 77.4 °F 73.2 °F 29.9 in NNE 4 mph 8.1 mph 87% 0 in
02:34 77.2 °F 73 °F 29.9 in NE 4 mph 8.1 mph 87% 0 in
02:39 77.2 °F 73 °F 29.9 in NE 4.2 mph 8.1 mph 87% 0 in
02:44 77.2 °F 73 °F 29.9 in NE 4.7 mph 8.5 mph 87% 0 in
02:49 77.2 °F 73.2 °F 29.9 in NNE 4.7 mph 9 mph 88% 0 in
02:54 77.2 °F 73.2 °F 29.9 in NE 4.7 mph 9.2 mph 88% 0 in
02:59 77.2 °F 73.2 °F 29.9 in NE 4.7 mph 9 mph 88% 0 in
03:04 77.2 °F 73.2 °F 29.9 in NE 4.7 mph 9 mph 88% 0 in
03:09 77.2 °F 73.2 °F 29.9 in NE 4.9 mph 10.7 mph 88% 0 in
03:14 77.2 °F 73.2 °F 29.9 in NE 5.4 mph 11 mph 88% 0 in
03:19 77.4 °F 73.4 °F 29.9 in NE 5.3 mph 10 mph 88% 0 in
03:24 77.4 °F 73.4 °F 29.9 in NE 5.2 mph 7 mph 88% 0 in
03:29 77.4 °F 73.6 °F 29.9 in NE 5 mph 7.6 mph 88% 0 in
03:34 77.4 °F 73.4 °F 29.9 in NE 4.3 mph 8.1 mph 88% 0 in
03:39 77.2 °F 73.2 °F 29.9 in NE 4.8 mph 10.7 mph 88% 0 in
03:44 77.2 °F 73.4 °F 29.9 in NE 5.9 mph 11 mph 88.4% 0 in
03:49 77.2 °F 73.8 °F 29.9 in NE 5.7 mph 9 mph 89% 0 in
03:54 77.2 °F 73.8 °F 29.9 in NE 5.2 mph 8.1 mph 89% 0 in
03:59 77.2 °F 73.8 °F 29.9 in NE 4.9 mph 8 mph 89% 0 in
04:04 77.2 °F 73.8 °F 29.9 in NE 4.3 mph 8.1 mph 89% 0 in
04:09 77.2 °F 73.6 °F 29.9 in NE 4.4 mph 8.1 mph 89% 0 in
04:14 77.2 °F 73.6 °F 29.9 in NE 4.7 mph 8 mph 89% 0 in
04:19 77.2 °F 73.6 °F 29.9 in NE 4.3 mph 6.2 mph 89% 0 in
04:24 77.2 °F 73.6 °F 29.9 in NE 3.6 mph 8.1 mph 89% 0 in
04:29 77.2 °F 73.6 °F 29.9 in NE 3.9 mph 8 mph 89% 0 in
04:34 77.2 °F 73.8 °F 29.9 in NE 4.7 mph 7.4 mph 89% 0 in
04:39 77.2 °F 73.8 °F 29.9 in NE 4.5 mph 9.2 mph 89% 0 in
04:44 77.2 °F 73.8 °F 29.9 in NE 4 mph 9 mph 89% 0 in
04:49 77.2 °F 73.8 °F 29.9 in NE 4.1 mph 6.9 mph 89% 0 in
04:54 77.2 °F 73.8 °F 29.9 in NNE 4.3 mph 7 mph 89% 0 in
04:59 77.2 °F 73.8 °F 29.9 in NE 4.2 mph 7 mph 89% 0 in
05:04 77.2 °F 73.8 °F 29.9 in NE 4 mph 7 mph 89% 0 in
05:09 77.2 °F 73.8 °F 29.9 in NE 3.7 mph 6.9 mph 89% 0 in
05:14 77 °F 73.6 °F 29.9 in NE 3.1 mph 7 mph 89% 0 in
05:19 77 °F 73.6 °F 29.9 in NNE 3.4 mph 6.2 mph 89% 0 in
05:24 76.8 °F 73.4 °F 29.9 in NE 4 mph 6.2 mph 89% 0 in
05:29 76.8 °F 73.4 °F 29.9 in NE 3.9 mph 6 mph 89% 0 in
05:34 76.8 °F 73.4 °F 29.9 in NNE 3.6 mph 6.9 mph 89.2% 0 in
05:39 76.8 °F 73.6 °F 29.9 in NNE 3.7 mph 7 mph 89.7% 0 in
05:44 76.8 °F 73.8 °F 29.9 in NE 4 mph 7.4 mph 90% 0 in
05:49 76.8 °F 73.6 °F 29.9 in NE 4 mph 7 mph 90% 0 in
05:54 76.8 °F 73.6 °F 29.9 in NE 4 mph 7 mph 90% 0 in
05:59 76.6 °F 73.6 °F 29.9 in NE 4 mph 7.4 mph 90% 0 in
06:04 76.6 °F 73.6 °F 29.9 in NE 4 mph 7 mph 90% 0 in
06:09 76.6 °F 73.6 °F 29.9 in NE 3.9 mph 7.6 mph 90% 0 in
06:14 76.6 °F 73.6 °F 29.9 in NE 3.6 mph 8.1 mph 90% 0 in
06:19 76.6 °F 73.6 °F 29.9 in NE 3.8 mph 8.5 mph 90% 0 in
06:24 76.6 °F 73.6 °F 29.9 in NE 4.3 mph 9 mph 90% 0 in
06:29 76.6 °F 73.6 °F 29.9 in NNE 4.6 mph 9.7 mph 90% 0 in
06:34 76.6 °F 73.6 °F 29.9 in NNE 5.4 mph 10 mph 90% 0 in
06:39 76.6 °F 73.4 °F 29.9 in NE 5.3 mph 9 mph 90% 0 in
06:44 76.5 °F 73.4 °F 29.9 in NE 5.2 mph 8.1 mph 90% 0 in
06:49 76.5 °F 73.2 °F 29.9 in NE 4.9 mph 8 mph 90% 0 in
06:54 76.5 °F 73.4 °F 29.9 in NE 4.3 mph 9.2 mph 90.1% 0 in
06:59 76.3 °F 73.6 °F 29.9 in NE 4.4 mph 9.2 mph 91% 0 in
07:04 76.3 °F 73.6 °F 29.9 in NE 4.7 mph 8.1 mph 91% 0 in
07:09 76.3 °F 73.6 °F 29.9 in NE 4.7 mph 9.2 mph 91% 0 in
07:14 76.3 °F 73.4 °F 29.9 in NE 4.7 mph 9.7 mph 91% 0 in
07:19 76.1 °F 73.2 °F 29.9 in NE 5 mph 10 mph 91% 0 in
07:24 75.9 °F 73 °F 29.9 in NE 5.9 mph 7 mph 91% 0 in
07:29 75.9 °F 73 °F 29.9 in NE 5.3 mph 6 mph 91% 0 in
07:34 75.9 °F 73 °F 29.9 in NE 4 mph 9.2 mph 91% 0 in
07:39 75.9 °F 73.2 °F 29.9 in NE 4.2 mph 9 mph 91% 0 in
07:44 76.1 °F 73.4 °F 29.9 in NE 4.7 mph 6 mph 91% 0 in
07:49 76.3 °F 73.6 °F 29.9 in NE 4.5 mph 6.2 mph 91% 0 in
07:54 76.5 °F 73.4 °F 29.9 in NE 4 mph 6 mph 90.6% 0 in
07:59 76.5 °F 73.4 °F 29.9 in NNE 3.9 mph 5.2 mph 90% 0 in
08:04 76.6 °F 73.6 °F 29.9 in North 3.6 mph 5 mph 90% 0 in
08:09 76.8 °F 73.8 °F 29.9 in NNE 3.4 mph 5 mph 89.9% 0 in
08:14 77.2 °F 73.8 °F 29.9 in NE 2 mph 5 mph 89% 0 in
08:19 77.4 °F 73.6 °F 29.9 in NNE 2.1 mph 5 mph 88.2% 0 in
08:24 77.4 °F 73.6 °F 29.9 in NE 2.4 mph 5 mph 88% 0 in
08:29 77.5 °F 73.6 °F 29.9 in NNE 2.4 mph 5 mph 87.7% 0 in
08:34 77.5 °F 73.4 °F 29.9 in NNE 2.4 mph 5 mph 87% 0 in
08:39 77.5 °F 73.6 °F 29.9 in NNE 2.4 mph 5 mph 87.5% 0 in
08:44 77.7 °F 73.8 °F 29.9 in North 2.4 mph 5 mph 87.5% 0 in
08:49 78.1 °F 73.8 °F 29.9 in NNE 2.4 mph 5.4 mph 86.6% 0 in
08:54 78.3 °F 73.6 °F 29.9 in NNE 2.4 mph 6.9 mph 85.5% 0 in
08:59 78.3 °F 73.6 °F 29.9 in NNE 2.8 mph 7 mph 85.4% 0 in
09:04 78.4 °F 73.8 °F 29.9 in NE 3.6 mph 6.9 mph 85.1% 0 in
09:09 78.4 °F 73.4 °F 29.9 in NE 3.7 mph 8.5 mph 84.3% 0 in
09:14 78.6 °F 73.4 °F 29.9 in NNE 4 mph 9 mph 84.2% 0 in
09:19 78.6 °F 73.4 °F 29.9 in NE 3.7 mph 8.1 mph 84% 0 in
09:24 78.8 °F 73 °F 29.9 in NE 3.1 mph 8 mph 82.5% 0 in
09:29 79 °F 72.7 °F 29.9 in NNE 3.5 mph 8.1 mph 81.1% 0 in
09:34 79 °F 72.5 °F 29.9 in NE 4.3 mph 8.1 mph 80.5% 0 in
09:39 79.2 °F 72.5 °F 29.9 in NE 4.4 mph 8.1 mph 80.2% 0 in
09:44 79 °F 72.3 °F 29.9 in NE 4.7 mph 11.5 mph 80% 0 in
09:49 79 °F 72.3 °F 29.9 in NE 5.2 mph 12 mph 80% 0 in
09:54 79.2 °F 72.5 °F 29.9 in NE 6.2 mph 11 mph 79.9% 0 in
09:59 79.5 °F 72.3 °F 29.9 in NE 6.1 mph 9 mph 78.6% 0 in
10:04 80.2 °F 72.5 °F 29.9 in NE 5.9 mph 9.2 mph 77.6% 0 in
10:09 80.4 °F 72.3 °F 29.9 in NE 5.8 mph 10.7 mph 76.3% 0 in
10:14 80.8 °F 72.3 °F 29.9 in NE 5.4 mph 11 mph 75.3% 0 in
10:19 81.1 °F 71.2 °F 29.9 in NE 5.3 mph 11.8 mph 72% 0 in
10:24 81.5 °F 70.3 °F 29.9 in ENE 5.2 mph 12 mph 69% 0 in
10:29 81.9 °F 70.5 °F 29.9 in NE 5.4 mph 13.5 mph 68.7% 0 in
10:34 82 °F 69.4 °F 29.9 in NE 5.9 mph 14 mph 65.7% 0 in
10:39 82.2 °F 69.4 °F 29.9 in NE 6.3 mph 13 mph 65.4% 0 in
10:44 82.2 °F 69.6 °F 29.9 in NE 7.4 mph 13.8 mph 66.1% 0 in
10:49 82.8 °F 68.9 °F 29.9 in NE 7.3 mph 14 mph 63.2% 0 in
10:54 83.3 °F 69.4 °F 29.9 in NE 6.9 mph 13 mph 63.2% 0 in
10:59 83.1 °F 68.2 °F 29.9 in NE 7.1 mph 15 mph 61% 0 in
11:04 82.9 °F 68.9 °F 29.9 in ENE 7.4 mph 16.3 mph 62.7% 0 in
11:09 82.9 °F 68.2 °F 29.9 in NE 7.5 mph 16 mph 61% 0 in
11:14 83.1 °F 67.8 °F 29.9 in NNE 7.6 mph 16.3 mph 60.1% 0 in
11:19 83.1 °F 67.8 °F 29.9 in NE 8 mph 16 mph 60.1% 0 in
11:24 83.5 °F 68 °F 29.9 in ENE 8.7 mph 15 mph 59.6% 0 in
11:29 83.8 °F 68.4 °F 29.9 in NE 8.2 mph 12.7 mph 59.9% 0 in
11:34 84.2 °F 68.7 °F 29.9 in ENE 6.9 mph 13 mph 60% 0 in
11:39 84.6 °F 68 °F 29.9 in NE 6.6 mph 17.3 mph 57.6% 0 in
11:44 84.4 °F 67.5 °F 29.9 in NE 5.9 mph 17 mph 56.9% 0 in
11:49 84 °F 66.7 °F 29.9 in NE 6.6 mph 16.3 mph 56% 0 in
11:54 84 °F 66.6 °F 29.9 in NE 8.5 mph 17.8 mph 56% 0 in
11:59 84.6 °F 67.1 °F 29.9 in NE 8.3 mph 18 mph 56% 0 in
12:04 84.7 °F 67.5 °F 29.9 in NE 8.1 mph 14.7 mph 56% 0 in
12:09 84.7 °F 67.5 °F 29.9 in NE 8.3 mph 15 mph 56% 0 in
12:14 84.6 °F 66.9 °F 29.9 in NE 8.7 mph 16.8 mph 55.6% 0 in
12:19 84.6 °F 66.6 °F 29.9 in NE 8.6 mph 17.3 mph 54.9% 0 in
12:24 84.7 °F 66.2 °F 29.9 in NE 8.5 mph 17.3 mph 53.9% 0 in
12:29 84.9 °F 66 °F 29.9 in NE 8.7 mph 17 mph 53.1% 0 in
12:34 85.1 °F 66 °F 29.9 in NE 9.2 mph 16.1 mph 53% 0 in
12:39 85.3 °F 65.7 °F 29.9 in NE 8.9 mph 16 mph 52.1% 0 in
12:44 85.3 °F 66 °F 29.9 in NE 8.1 mph 19 mph 52.7% 0 in
12:49 85.1 °F 65.8 °F 29.9 in NE 8.7 mph 20 mph 52.6% 0 in
12:54 85.5 °F 66 °F 29.9 in NE 10.2 mph 20 mph 52.4% 0 in
12:59 85.5 °F 65.7 °F 29.9 in NE 10.4 mph 19 mph 51.9% 0 in
13:04 85.5 °F 65.7 °F 29.9 in NE 10.7 mph 19 mph 52% 0 in
13:09 85.5 °F 65.8 °F 29.9 in NE 10.4 mph 17.3 mph 52% 0 in
13:14 85.8 °F 66 °F 29.9 in NE 9.7 mph 18.4 mph 51.7% 0 in
13:19 86 °F 66 °F 29.9 in NE 9.4 mph 18 mph 51.4% 0 in
13:24 86 °F 66 °F 29.9 in NE 8.7 mph 22.3 mph 51.3% 0 in
13:29 85.6 °F 65.7 °F 29.9 in NE 9.4 mph 22 mph 51.3% 0 in
13:34 85.8 °F 66 °F 29.9 in NE 11.2 mph 19 mph 51.7% 0 in
13:39 86.2 °F 65.1 °F 29.9 in NE 11.2 mph 20.7 mph 49.7% 0 in
13:44 86 °F 64.9 °F 29.9 in Este 11.2 mph 21 mph 49.5% 0 in
13:49 86.4 °F 65.5 °F 29.9 in ENE 11.1 mph 18.4 mph 49.9% 0 in
13:54 86.5 °F 65.3 °F 29.9 in NE 10.7 mph 18 mph 49.5% 0 in
13:59 86.5 °F 65.5 °F 29.9 in ENE 10.4 mph 19.6 mph 49.4% 0 in
14:04 86.7 °F 65.7 °F 29.9 in NE 10 mph 20 mph 49.4% 0 in
14:09 87.1 °F 66 °F 29.9 in ENE 9.6 mph 20.7 mph 50% 0 in
14:14 87.1 °F 66.2 °F 29.9 in ENE 8.7 mph 21 mph 49.9% 0 in
14:19 86.7 °F 65.5 °F 29.9 in NE 9.4 mph 22.3 mph 49.4% 0 in
14:24 86.9 °F 65.7 °F 29.9 in NE 11.2 mph 22 mph 49.3% 0 in
14:29 87.4 °F 65.7 °F 29.9 in NE 10.7 mph 20.1 mph 48.8% 0 in
14:34 87.3 °F 65.8 °F 29.9 in NE 9.7 mph 21 mph 49.1% 0 in
14:39 86.9 °F 66.2 °F 29.9 in NE 10.4 mph 21 mph 50.3% 0 in
14:44 87.3 °F 66.7 °F 29.9 in NE 11.8 mph 23 mph 50.9% 0 in
14:49 87.1 °F 66.9 °F 29.9 in ENE 11.2 mph 23 mph 51% 0 in
14:54 86.9 °F 67.1 °F 29.9 in ENE 10 mph 20 mph 51.7% 0 in
14:59 86.5 °F 66.9 °F 29.9 in NE 10.2 mph 21.3 mph 52% 0 in
15:04 86.5 °F 67.3 °F 29.9 in NE 10.7 mph 21.3 mph 52.8% 0 in
15:09 86.9 °F 67.3 °F 29.9 in ENE 10.7 mph 21 mph 52.1% 0 in
15:14 86.9 °F 66.6 °F 29.9 in NE 10.7 mph 20 mph 50.9% 0 in
15:19 86.7 °F 67.1 °F 29.9 in NE 10.9 mph 20.8 mph 52.2% 0 in
15:24 86.5 °F 67.1 °F 29.9 in NE 11.4 mph 21.3 mph 52.7% 0 in
15:29 86.5 °F 66.4 °F 29.9 in NE 11.5 mph 21.9 mph 51% 0 in
15:34 86.5 °F 66.6 °F 29.9 in NE 11.8 mph 22 mph 51.6% 0 in
15:39 86.7 °F 67.1 °F 29.9 in NE 11.2 mph 21 mph 51.9% 0 in
15:44 87.1 °F 67.1 °F 29.9 in NE 10 mph 20 mph 51.8% 0 in
15:49 87.3 °F 67.3 °F 29.9 in NE 9.8 mph 20.1 mph 51.6% 0 in
15:54 86.9 °F 66.7 °F 29.9 in NE 9.2 mph 21 mph 51.3% 0 in
15:59 86.5 °F 66.7 °F 29.9 in NE 10.3 mph 21 mph 51.7% 0 in
16:04 86.5 °F 66.4 °F 29.9 in NE 12.3 mph 23.5 mph 51.2% 0 in
16:09 86.4 °F 66.4 °F 29.9 in NE 12.7 mph 23 mph 51.5% 0 in
16:14 86.2 °F 66.7 °F 29.9 in NE 13.7 mph 22 mph 52.3% 0 in
16:19 86.4 °F 66.4 °F 29.9 in NE 13.3 mph 23 mph 51.3% 0 in
16:24 86.5 °F 66.7 °F 29.9 in NE 12.3 mph 23 mph 52% 0 in
16:29 86.9 °F 66.4 °F 29.9 in ENE 12 mph 20 mph 50.8% 0 in
16:34 87.1 °F 65.3 °F 29.9 in Este 11.2 mph 19.7 mph 48.7% 0 in
16:39 87.3 °F 66 °F 29.9 in ENE 10.7 mph 20 mph 49.4% 0 in
16:44 87.3 °F 65.7 °F 29.9 in ENE 9.7 mph 17.3 mph 48.7% 0 in
16:49 87.4 °F 65.8 °F 29.9 in NE 9.6 mph 16 mph 48.8% 0 in
16:54 87.1 °F 65.7 °F 29.9 in NE 9.2 mph 21.3 mph 49.1% 0 in
16:59 86.7 °F 65.8 °F 29.9 in NE 9.7 mph 21 mph 50% 0 in
17:04 86.7 °F 66.2 °F 29.9 in NE 10.7 mph 19 mph 50.3% 0 in
17:09 86.7 °F 66 °F 29.9 in ENE 10.8 mph 20.7 mph 50.2% 0 in
17:14 86.4 °F 66 °F 29.9 in ENE 11.2 mph 21 mph 50.7% 0 in
17:19 86.5 °F 66 °F 29.9 in NE 10.7 mph 19 mph 50.5% 0 in
17:24 86.5 °F 64.8 °F 29.9 in ENE 9.7 mph 21.3 mph 48.5% 0 in
17:29 86.7 °F 65.3 °F 29.9 in NE 9.8 mph 21 mph 49% 0 in
17:34 86.5 °F 65.1 °F 29.9 in NE 10.2 mph 22.3 mph 49% 0 in
17:39 86.4 °F 65.5 °F 29.9 in NE 10.7 mph 22 mph 49.8% 0 in
17:44 86.4 °F 65.1 °F 29.9 in NE 11.8 mph 19 mph 49.4% 0 in
17:49 86.4 °F 64.6 °F 29.9 in ENE 11.1 mph 17 mph 48.6% 0 in
17:54 86.4 °F 64.8 °F 29.9 in NE 9.2 mph 18.5 mph 48.7% 0 in
17:59 86.2 °F 64.2 °F 29.9 in NE 9.9 mph 19.6 mph 48% 0 in
18:04 86.2 °F 64.4 °F 29.9 in ENE 11.4 mph 20 mph 48.1% 0 in
18:09 86.4 °F 64.4 °F 29.9 in NE 10.7 mph 18.5 mph 47.8% 0 in
18:14 86.2 °F 64.2 °F 29.9 in NE 9.2 mph 19 mph 48% 0 in
18:19 86.2 °F 64 °F 29.9 in NE 9.3 mph 18.4 mph 48% 0 in
18:24 85.8 °F 64.4 °F 29.9 in NE 9.7 mph 18.4 mph 48.7% 0 in
18:29 85.8 °F 64.4 °F 29.9 in NE 10 mph 18.4 mph 48.9% 0 in
18:34 85.6 °F 64.4 °F 29.9 in NE 10.7 mph 18 mph 49% 0 in
18:39 85.6 °F 64.4 °F 29.9 in NE 10.5 mph 20.8 mph 49.4% 0 in
18:44 85.5 °F 64.6 °F 29.9 in NE 10 mph 24.2 mph 49.9% 0 in
18:49 85.3 °F 64.6 °F 29.9 in NE 10 mph 24 mph 50% 0 in
18:54 85.3 °F 64.6 °F 29.9 in NE 10 mph 18.4 mph 50% 0 in
18:59 84.9 °F 64.6 °F 29.9 in NE 10.4 mph 18 mph 50.7% 0 in
19:04 84.7 °F 64 °F 29.9 in NE 11.2 mph 19.7 mph 50.1% 0 in
19:09 84.7 °F 64.2 °F 29.9 in NE 10.9 mph 20 mph 50.3% 0 in
19:14 84.7 °F 64.6 °F 29.9 in NE 10.2 mph 17.3 mph 51% 0 in
19:19 84.6 °F 64.4 °F 29.9 in NE 10.1 mph 17 mph 51% 0 in
19:24 84.4 °F 64.4 °F 29.9 in ENE 10 mph 16 mph 51% 0 in
19:29 84.4 °F 64.6 °F 29.9 in ENE 9.6 mph 15.9 mph 51.6% 0 in
19:34 84 °F 64.2 °F 29.9 in NE 8.7 mph 18.4 mph 51.6% 0 in
19:39 83.8 °F 63.9 °F 29.9 in NE 9.3 mph 19.6 mph 51.2% 0 in
19:44 83.7 °F 64 °F 29.9 in NE 10.7 mph 20 mph 51.6% 0 in
19:49 83.7 °F 63.9 °F 29.9 in NE 10.4 mph 18 mph 51.5% 0 in
19:54 83.7 °F 64.6 °F 29.9 in NE 9.7 mph 14 mph 52.9% 0 in
19:59 83.5 °F 64 °F 29.9 in NE 9.1 mph 14 mph 52.1% 0 in
20:04 83.5 °F 64 °F 29.9 in NE 8.1 mph 13.8 mph 52% 0 in
20:09 83.3 °F 63.9 °F 29.9 in NE 7.9 mph 14 mph 52% 0 in
20:14 83.1 °F 63.7 °F 29.9 in NE 7.4 mph 14 mph 52% 0 in
20:19 82.9 °F 64 °F 29.9 in ENE 7.3 mph 13.8 mph 53.1% 0 in
20:24 82.8 °F 63.9 °F 29.9 in ENE 6.9 mph 15.2 mph 52.8% 0 in
20:29 82.6 °F 63.5 °F 29.9 in ENE 7.3 mph 16.1 mph 52.4% 0 in
20:34 82.4 °F 64 °F 29.9 in NE 8.1 mph 16.1 mph 53.9% 0 in
20:39 82.2 °F 64.2 °F 29.9 in NE 8.3 mph 16.1 mph 54.8% 0 in
20:44 82 °F 64.2 °F 29.9 in ENE 8.7 mph 14 mph 55% 0 in
20:49 81.9 °F 64.2 °F 29.9 in ENE 8.5 mph 15.2 mph 55.1% 0 in
20:54 81.7 °F 64.4 °F 29.9 in NE 8.1 mph 15 mph 56% 0 in
20:59 81.3 °F 64 °F 29.9 in NE 8.2 mph 15 mph 56% 0 in
21:04 81.1 °F 64 °F 29.9 in ENE 8.5 mph 14 mph 56% 0 in
21:09 81.1 °F 64 °F 29.9 in ENE 8 mph 16.1 mph 56% 0 in
21:14 81 °F 64.2 °F 29.9 in NE 6.9 mph 16 mph 56.6% 0 in
21:19 81 °F 64.8 °F 29.9 in NE 6.7 mph 13 mph 58.3% 0 in
21:24 80.4 °F 64.9 °F 29.9 in NE 6.2 mph 16.1 mph 59% 0 in
21:29 80.2 °F 64.6 °F 29.9 in NE 6.8 mph 16 mph 59% 0 in
21:34 80.1 °F 64.4 °F 29.9 in NE 8.1 mph 16.1 mph 59% 0 in
21:39 79.9 °F 64.6 °F 29.9 in NE 8.3 mph 16 mph 59.5% 0 in
21:44 79.9 °F 64.8 °F 29.9 in NE 8.7 mph 14 mph 60% 0 in
21:49 79.7 °F 64.6 °F 29.9 in NE 8 mph 13 mph 60.1% 0 in
21:54 79.5 °F 64.9 °F 29.9 in NE 6.4 mph 10 mph 61% 0 in
21:59 79.5 °F 64.9 °F 29.9 in NE 5.8 mph 9.2 mph 61.1% 0 in
22:04 79.3 °F 65.3 °F 29.9 in NE 4.7 mph 10.7 mph 62.1% 0 in
22:09 79.2 °F 65.5 °F 29.9 in NE 5.2 mph 11 mph 63% 0 in
22:14 79.2 °F 65.8 °F 29.9 in NE 6.2 mph 11.5 mph 63.7% 0 in
22:19 79 °F 66 °F 29.9 in NE 6.6 mph 12 mph 64.6% 0 in
22:24 79 °F 66.2 °F 29.9 in NE 7.4 mph 12 mph 65% 0 in
22:29 78.8 °F 66 °F 29.9 in NE 7.3 mph 13 mph 65% 0 in
22:34 78.8 °F 66 °F 29.9 in NE 6.9 mph 13 mph 65.2% 0 in
22:39 78.6 °F 66.4 °F 29.9 in NE 6.6 mph 11 mph 66% 0 in
22:44 78.4 °F 66.2 °F 29.9 in NE 5.9 mph 9.2 mph 66% 0 in
22:49 78.4 °F 66.2 °F 29.9 in NE 6 mph 9 mph 66% 0 in
22:54 78.4 °F 66.6 °F 29.9 in NE 6.2 mph 9.2 mph 66.9% 0 in
22:59 78.3 °F 66.4 °F 29.9 in NE 6 mph 9.2 mph 67% 0 in
23:04 78.3 °F 66.4 °F 29.9 in NE 5.4 mph 9.7 mph 67% 0 in
23:09 78.3 °F 66.4 °F 29.9 in NE 5.5 mph 10 mph 67% 0 in
23:14 78.1 °F 66.2 °F 29.9 in NE 5.9 mph 8 mph 67% 0 in
23:19 78.1 °F 66.6 °F 29.9 in NE 5.4 mph 6.4 mph 67.6% 0 in
23:24 77.9 °F 66.6 °F 29.9 in NE 4.3 mph 7.4 mph 68% 0 in
23:29 77.9 °F 66.6 °F 29.9 in NE 4.2 mph 7 mph 68% 0 in
23:34 77.7 °F 66.6 °F 29.9 in NE 4 mph 6.9 mph 68.6% 0 in
23:39 77.7 °F 66.7 °F 29.9 in NE 3.7 mph 7 mph 69% 0 in
23:44 77.5 °F 66.6 °F 29.9 in NE 2.9 mph 5.9 mph 69% 0 in
23:49 77.5 °F 66.7 °F 29.9 in NE 3.1 mph 6 mph 69.3% 0 in
23:54 77.5 °F 66.9 °F 29.9 in NE 3.6 mph 6.9 mph 70% 0 in
23:59 77.4 °F 66.9 °F 29.9 in NE 3.9 mph 7 mph 70% 0 in
Murcia-Puente Tocinos, España
Compliments of Weather Underground - 3 mb

La estación de MeteoMurcia.com, publica sus datos en los siguientes proyectos:

Weather Underground PWS IMURCIAP2 Meteoclimatic www.awekas.at

W3Counter
Web Analytics